Pagina principale
METAR-TAF:

METAR-TAF

Aeroporti :

Mendoza, Argentina

latitudine: 32-50S, longitudine: 068-47W, altezza: 705 m

Osservazione

Il bollettino è stato emesso 20 minuti fa, alle 06:00 UTC
Vento 6 kt da sud-ovest
Temperature 22°C
Umidità 53%
Pressione 1010 hPa
Visibilità 10 km o più
nessuna nube inferiore a 1500 m e nessun cumulonembo

METAR: SAME 230600Z 23006KT CAVOK 22/12 Q1010

Ora: 03:20 (06:20 UTC)

Previsione

Il bollettino è stato emesso 1 ora e 20 minuti fa, alle 05:00 UTC
Previsione valida dal 23 alle 06 UTC al 24 alle 06 UTC
Vento 10 kt da nord-est
Visibilità: 7000 m
Nuvoloso ad un'altezza di 3000 ft
Poco nuvoloso ad un'altezza di 4000 ft, Cumulonembo.
Evoluzione graduale
dal 23 alle 11 UTC al 23 alle 14 UTC
Vento 10 kt da sud-est
Visibilità 10 km o più
Nuvoloso ad un'altezza di 3000 ft

TAF: SAME 230500Z 2306/2406 05010KT 7000 RASH/TS BKN030 FEW040CB TN21/2311Z TX30/2318Z BECMG 2311/2314 14010KT 9999 BKN030

Osservazioni e previsioni meteorologiche di più di 4000 aeroporti (messaggi METAR e TAF).

Le stazioni disponibili sono rappresentate dai dischi gialli e rossi sulla carta.

Puntare il mouse per vedere il nome della stazione.

Clicca sopra per visualizzare le osservazioni e previsioni meteorologiche.

Per cambiare la mappa : fare clic sui pulsanti verdi con una croce nera per ingrandire, il pulsante verde con un trattino per diminuire, o sulla freccia verde per le mappe adiacenti.


METAR-TAF: